Forum - i mitici sud

tutti gli utenti del gruppo possono partecipare le discussione con riferimento a sesso o non conforme a chatta.it verranno imossi

Amministratore
F.ranco52 30/01/2020 ore 08:59 Quota

(nessuno) Nowcasting Giovedì 30 Gennaio 2020

Buongiorno a tutti


Notizie Meteo dell'Italia da il Meteo .It


http://ilMeteo.It


la Situazione Italiana vista dal Sat









il Radar Europeo









Brindisi

METAR LIBR 300650Z 27004KT CAVOK 08/04 Q1018=

METAR di Brindisi del 30 alle 6,50

Vento da 270° W 4 nodi (7,408 km) Visibilità 10000 m
Base delle Nubi e Visibilità OK
Temp 8°C Dew 4°C Ur 75% hPa 1018

Brindisi

TAF LIBR 300500Z 3006/3106 34012KT CAVOK BECMG 3018/3020 VRB05KT=

le TAF di Brindisi delle 5z Previsioni dalle 6z alle 6z del 31

Vento da 340° N NW 12 nodi (22,224 km) Visibikità 10000 m
Base delle Nubi e Visibilità OK
le Condizioni Diverranno fra le 18z e le 20z
Vento Varabikle 5 nodi (9,26 km)


Gioia del Colle

METAR LIBV 300655Z 21001KT CAVOK 07/05 Q1018 RMK FEW FEW200 VIS MIN 9999 WIND THR32 27002KT WIND THR14 22001KT BLU=

METAR di Gioia del Colle del 30 alle 6,55z

Vento da 210° S SW 1 nodo (1,852 km) Visibilità 10000 m
Base delle Nubi e Visibilità OK
Temp 7°C Dew 5°C Ur 87% hPa 1018
Aumento della Nuvolosità a 1-2 ottavi
Copertura 1-2 ottavi da 20000 piedi (6096 m)
Visibilità Minima 10000 m

Gioia del Colle

TAF LIBV 300500Z 3006/3015 VRB03KT CAVOK BECMG 3010/3012 34010KT=

le TAF di Gioa del Colle delle 5z Previsioni dalle 6z alle 15z

Vento Variabile 3 nodi (5,556 km) Visibilità 10000 m
Base delle Nubi e Visibilità OK
le Condizioni Diverranno fra le 10z e le 12z
Vento da 340° N NW 10 nodi (18,52 km)
2655018
Buongiorno a tutti Notizie Meteo dell'Italia da il Meteo .It http://ilMeteo.It la Situazione Italiana vista dal Sat « immagine »...
Discussione
30/01/2020 08:59:05
none
  • mi piace
    iLikeIt
    PublicVote

Vuoi partecipare anche tu a questa discussione?

Rispondi per lasciare il tuo messaggio in questa discussione